Main page
METAR-TAF:

METAR-TAF

Airports :

Bologna Guglielmo Marconi Airport

Bologna, Italy

latitude: 44-32N, longitude: 011-18E, elevation: 36 m

Current weather observation

The report was made 35 minutes ago, at 06:50 UTC
Wind 2 kt from variable directions
Temperature -2°C
Humidity 86%
Pressure 1019 hPa
Visibility 10 km or more
no clouds below 1500 m and no cumulonimbus

METAR: LIPE 160650Z VRB02KT CAVOK M02/M04 Q1019

Time: 08:25 (07:25 UTC)

Forecast

The report was made 2 hours and 25 minutes ago, at 05:00 UTC
Forecast valid from 16 at 06 UTC to 17 at 06 UTC
Wind 5 kt from variable directions
Visibility 10 km or more
Few clouds at a height of 4000 ft
Becoming
from 16 at 12 UTC to 16 at 15 UTC
Broken clouds at a height of 1200 ft
Temporary
from 16 at 18 UTC to 17 at 06 UTC
Visibility: 3000 m
snow

TAF: LIPE 160500Z 1606/1706 VRB05KT 9999 FEW040 BECMG 1612/1615 BKN012 TEMPO 1618/1706 3000 SN

Weather observations and forecasts of more than 4000 airports (METAR and TAF reports).

The available stations are represented by yellow and red dots on the map.

Hover mouse over dot to see the name of the station.

Then click to see weather observations and forecasts.

To change the map : click on the green buttons with a black cross to zoom in, on the green button with a dash to zoom out, or on the green arrows for adjacent maps.


METAR-TAF: